createdAt,value
2023-08-09T00:01:10.005Z,1.47
2023-08-09T00:03:38.314Z,1.70
2023-08-09T00:06:06.423Z,1.63
2023-08-09T00:08:34.449Z,1.77
2023-08-09T00:11:02.563Z,1.63
2023-08-09T00:13:30.828Z,1.53
2023-08-09T00:16:00.286Z,1.57
2023-08-09T00:18:28.343Z,1.80
2023-08-09T00:20:58.028Z,1.47
2023-08-09T00:23:26.339Z,1.70
2023-08-09T00:25:54.466Z,1.73
2023-08-09T00:28:22.554Z,1.80
2023-08-09T00:30:50.725Z,1.60
2023-08-09T00:33:20.561Z,1.63
2023-08-09T00:35:48.710Z,1.73
2023-08-09T00:38:16.825Z,1.60
2023-08-09T00:40:44.835Z,1.60
2023-08-09T00:43:13.096Z,1.60
2023-08-09T00:45:47.035Z,1.50
2023-08-09T00:48:15.451Z,1.77
2023-08-09T00:50:44.904Z,1.70
2023-08-09T00:53:13.073Z,1.87
2023-08-09T00:55:41.625Z,1.67
2023-08-09T00:58:09.951Z,1.60
2023-08-09T01:00:38.363Z,1.80
2023-08-09T01:03:06.751Z,1.77
2023-08-09T01:05:39.371Z,1.70
2023-08-09T01:08:16.777Z,2.03
2023-08-09T01:10:52.063Z,1.67
2023-08-09T01:13:21.378Z,1.60
2023-08-09T01:15:51.344Z,1.60
2023-08-09T01:18:20.148Z,1.53
2023-08-09T01:20:51.089Z,1.70
2023-08-09T01:23:22.040Z,1.80
2023-08-09T01:25:51.548Z,1.43
2023-08-09T01:28:19.565Z,1.77
2023-08-09T01:30:47.851Z,1.60
2023-08-09T01:33:17.121Z,1.70
2023-08-09T01:35:54.911Z,1.70
2023-08-09T01:38:28.909Z,1.63
2023-08-09T01:40:58.870Z,1.70
2023-08-09T01:43:27.991Z,1.70
2023-08-09T01:45:56.658Z,1.57
2023-08-09T01:48:24.785Z,1.80
2023-08-09T01:50:53.196Z,1.90
2023-08-09T01:53:21.318Z,1.90
2023-08-09T01:55:49.426Z,1.70
2023-08-09T01:58:20.508Z,1.80
2023-08-09T02:00:48.719Z,2.00
2023-08-09T02:03:16.890Z,2.00
2023-08-09T02:05:44.840Z,2.00
2023-08-09T02:08:14.047Z,1.77
2023-08-09T02:10:42.114Z,2.03
2023-08-09T02:13:10.069Z,2.10
2023-08-09T02:15:39.494Z,2.50
2023-08-09T02:18:07.715Z,2.80
2023-08-09T02:20:36.658Z,2.57
2023-08-09T02:23:06.273Z,2.57
2023-08-09T02:25:34.333Z,2.30
2023-08-09T02:28:02.371Z,2.50
2023-08-09T02:30:30.606Z,2.63
2023-08-09T02:33:00.461Z,3.07
2023-08-09T02:35:35.202Z,3.20
2023-08-09T02:38:03.773Z,3.57
2023-08-09T02:40:31.763Z,3.40
2023-08-09T02:42:59.813Z,3.40
2023-08-09T02:45:28.180Z,3.97
2023-08-09T02:47:56.259Z,3.70
2023-08-09T02:50:25.709Z,3.10
2023-08-09T02:52:53.761Z,3.57
2023-08-09T02:55:21.814Z,3.03
2023-08-09T02:57:49.895Z,2.90
2023-08-09T03:00:18.158Z,3.00
2023-08-09T03:02:46.265Z,3.40
2023-08-09T03:05:14.302Z,3.23
2023-08-09T03:07:43.835Z,4.20
2023-08-09T03:10:12.120Z,4.47
2023-08-09T03:12:40.144Z,5.10
2023-08-09T03:15:08.550Z,4.23
2023-08-09T03:17:36.702Z,4.10
2023-08-09T03:20:10.112Z,4.50
2023-08-09T03:22:38.185Z,3.60
2023-08-09T03:25:08.302Z,3.47
2023-08-09T03:27:36.544Z,3.47
2023-08-09T03:30:06.392Z,3.80
2023-08-09T03:32:34.882Z,3.30
2023-08-09T03:35:04.187Z,3.63
2023-08-09T03:37:32.200Z,3.50
2023-08-09T03:40:00.351Z,3.83
2023-08-09T03:42:29.984Z,3.43
2023-08-09T03:44:58.054Z,3.40
2023-08-09T03:47:26.128Z,3.60
2023-08-09T03:49:54.195Z,3.30
2023-08-09T03:52:22.219Z,2.93
2023-08-09T03:54:53.379Z,3.47
2023-08-09T03:57:22.764Z,3.20
2023-08-09T03:59:52.247Z,3.47
2023-08-09T04:02:20.300Z,3.53
2023-08-09T04:04:48.575Z,3.53
2023-08-09T04:07:16.636Z,3.63
2023-08-09T04:09:44.825Z,4.47
2023-08-09T04:12:12.957Z,4.17
2023-08-09T04:14:41.029Z,3.70
2023-08-09T04:17:10.376Z,3.90
2023-08-09T04:19:39.135Z,3.93
2023-08-09T04:22:07.220Z,4.30
2023-08-09T04:24:35.770Z,4.00
2023-08-09T04:27:04.294Z,4.47
2023-08-09T04:29:32.494Z,4.80
2023-08-09T04:32:00.548Z,3.93
2023-08-09T04:34:30.756Z,3.70
2023-08-09T04:36:58.818Z,4.03
2023-08-09T04:39:27.042Z,4.00
2023-08-09T04:41:55.123Z,4.40
2023-08-09T04:44:23.248Z,5.53
2023-08-09T04:46:51.333Z,4.07
2023-08-09T04:49:19.583Z,5.27
2023-08-09T04:51:49.265Z,3.97
2023-08-09T04:54:17.457Z,3.60
2023-08-09T04:56:45.545Z,3.87
2023-08-09T04:59:13.578Z,3.67
2023-08-09T05:01:41.681Z,4.60
2023-08-09T05:04:10.281Z,3.90
2023-08-09T05:06:38.391Z,3.83
2023-08-09T05:09:08.326Z,3.90
2023-08-09T05:11:36.381Z,3.70
2023-08-09T05:14:04.505Z,3.72
2023-08-09T05:16:32.604Z,3.45
2023-08-09T05:19:00.577Z,3.50
2023-08-09T05:21:28.582Z,3.63
2023-08-09T05:23:56.571Z,4.15
2023-08-09T05:26:26.016Z,3.47
2023-08-09T05:28:54.152Z,4.45
2023-08-09T05:31:24.792Z,3.70
2023-08-09T05:33:53.118Z,4.97
2023-08-09T05:36:21.151Z,3.78
2023-08-09T05:38:49.092Z,3.70
2023-08-09T05:41:17.186Z,3.95
2023-08-09T05:43:46.617Z,4.65
2023-08-09T05:46:14.618Z,4.65
2023-08-09T05:48:42.800Z,4.22
2023-08-09T05:51:10.974Z,4.50
2023-08-09T05:53:39.271Z,4.63
2023-08-09T05:56:07.417Z,5.13
2023-08-09T05:58:35.443Z,4.18
2023-08-09T06:01:05.803Z,5.18
2023-08-09T06:03:33.928Z,4.80
2023-08-09T06:06:02.610Z,5.45
2023-08-09T06:08:30.669Z,5.97
2023-08-09T06:10:58.659Z,4.93
2023-08-09T06:13:27.100Z,4.75
2023-08-09T06:15:55.216Z,5.78
2023-08-09T06:18:24.778Z,5.15
2023-08-09T06:20:52.914Z,5.18
2023-08-09T06:23:20.892Z,6.82
2023-08-09T06:25:54.073Z,5.88
2023-08-09T06:28:22.250Z,6.00
2023-08-09T06:30:50.453Z,5.80
2023-08-09T06:33:19.330Z,6.22
2023-08-09T06:35:48.703Z,7.35
2023-08-09T06:38:16.724Z,4.85
2023-08-09T06:40:45.090Z,5.60
2023-08-09T06:43:13.163Z,5.65
2023-08-09T06:45:41.176Z,5.47
2023-08-09T06:48:10.423Z,5.03
2023-08-09T06:50:38.853Z,5.40
2023-08-09T06:53:09.213Z,6.18
2023-08-09T06:55:37.290Z,5.45
2023-08-09T06:58:05.698Z,5.70
2023-08-09T07:00:33.839Z,5.95
2023-08-09T07:03:02.076Z,5.90
2023-08-09T07:05:30.111Z,6.13
2023-08-09T07:08:00.075Z,4.80
2023-08-09T07:10:31.328Z,4.60
2023-08-09T07:12:59.570Z,4.35
2023-08-09T07:15:28.585Z,4.30
2023-08-09T07:17:56.774Z,4.40
2023-08-09T07:20:24.777Z,4.28
2023-08-09T07:22:54.015Z,5.43
2023-08-09T07:25:22.240Z,5.57
2023-08-09T07:27:51.757Z,6.05
2023-08-09T07:30:20.295Z,3.97
2023-08-09T07:32:49.148Z,3.90
2023-08-09T07:35:19.267Z,4.13
2023-08-09T07:37:48.212Z,3.35
2023-08-09T07:40:16.738Z,3.10
2023-08-09T07:42:45.027Z,3.10
2023-08-09T07:45:15.239Z,2.90
2023-08-09T07:47:44.019Z,3.03
2023-08-09T07:50:12.990Z,2.90
2023-08-09T07:52:41.065Z,3.15
2023-08-09T07:55:09.757Z,3.20
2023-08-09T07:57:37.834Z,2.80
2023-08-09T08:00:08.017Z,2.65
2023-08-09T08:02:37.404Z,3.05
2023-08-09T08:05:05.844Z,3.28
2023-08-09T08:07:33.915Z,2.92
2023-08-09T08:10:11.563Z,3.08
2023-08-09T08:12:41.143Z,3.17
2023-08-09T08:15:10.063Z,3.20
2023-08-09T08:17:39.557Z,3.28
2023-08-09T08:20:12.054Z,2.97
2023-08-09T08:22:40.204Z,2.97
2023-08-09T08:25:09.293Z,3.45
2023-08-09T08:27:39.150Z,3.63
2023-08-09T08:30:10.068Z,3.30
2023-08-09T08:32:39.958Z,3.63
2023-08-09T08:35:14.366Z,3.40
2023-08-09T08:37:43.574Z,3.50
2023-08-09T08:40:18.890Z,3.20
2023-08-09T08:42:47.953Z,3.08
2023-08-09T08:45:19.839Z,3.78
2023-08-09T08:47:50.414Z,3.20
2023-08-09T08:50:19.765Z,2.88
2023-08-09T08:52:49.450Z,2.95
2023-08-09T08:55:17.998Z,2.78
2023-08-09T08:57:49.435Z,2.92
2023-08-09T09:02:51.257Z,3.13
2023-08-09T09:05:19.989Z,3.03
2023-08-09T09:07:50.955Z,2.83
2023-08-09T09:10:20.140Z,3.40
2023-08-09T09:12:48.191Z,2.90
2023-08-09T09:15:16.233Z,3.45
2023-08-09T09:17:46.263Z,3.72
2023-08-09T09:20:22.225Z,3.25
2023-08-09T09:22:50.439Z,3.30
2023-08-09T09:25:19.727Z,2.88
2023-08-09T09:27:50.827Z,3.13
2023-08-09T09:30:20.893Z,3.25
2023-08-09T09:33:00.864Z,3.40
2023-08-09T09:35:33.937Z,3.00
2023-08-09T09:38:03.814Z,3.00
2023-08-09T09:40:36.963Z,2.72
2023-08-09T09:43:06.711Z,2.90
2023-08-09T09:45:37.848Z,3.08
2023-08-09T09:48:06.596Z,2.80
2023-08-09T09:50:36.043Z,3.30
2023-08-09T09:53:06.040Z,2.90
2023-08-09T09:55:37.763Z,3.00
2023-08-09T09:58:05.924Z,2.90
2023-08-09T10:00:34.638Z,2.80
2023-08-09T10:03:05.273Z,2.60
2023-08-09T10:05:38.888Z,2.80
2023-08-09T10:08:14.298Z,2.72
2023-08-09T10:10:45.705Z,2.75
2023-08-09T10:13:25.450Z,2.78
2023-08-09T10:15:56.658Z,2.60
2023-08-09T10:18:29.822Z,2.85
2023-08-09T10:21:03.708Z,3.08
2023-08-09T10:23:32.028Z,2.80
2023-08-09T10:26:00.928Z,2.70
2023-08-09T10:28:51.041Z,2.90
2023-08-09T10:31:47.574Z,2.90
2023-08-09T10:34:16.728Z,2.60
2023-08-09T10:36:55.950Z,2.60
2023-08-09T10:39:34.958Z,3.05
2023-08-09T10:42:13.733Z,2.70
2023-08-09T10:44:53.735Z,3.40
2023-08-09T10:47:33.361Z,2.92
2023-08-09T10:50:21.250Z,2.90
2023-08-09T10:52:52.194Z,2.58
2023-08-09T10:55:38.305Z,3.90
2023-08-09T10:58:07.434Z,2.50
2023-08-09T11:00:41.077Z,2.70
2023-08-09T11:03:10.116Z,3.30
2023-08-09T11:05:40.370Z,3.25
2023-08-09T11:08:20.581Z,2.90
2023-08-09T11:10:50.461Z,2.90
2023-08-09T11:13:20.637Z,2.75
2023-08-09T11:15:51.503Z,2.88
2023-08-09T11:18:19.772Z,2.72
2023-08-09T11:20:47.735Z,2.70
2023-08-09T11:23:17.623Z,2.90
2023-08-09T11:25:45.644Z,2.63
2023-08-09T11:28:15.931Z,2.55
2023-08-09T11:30:47.027Z,2.63
2023-08-09T11:33:15.838Z,2.70
2023-08-09T11:35:46.338Z,2.70
2023-08-09T11:38:19.014Z,3.10
2023-08-09T11:40:53.475Z,2.75
2023-08-09T11:43:23.213Z,2.45
2023-08-09T11:45:53.981Z,2.83
2023-08-09T11:48:31.520Z,2.70
2023-08-09T11:51:08.141Z,2.60
2023-08-09T11:53:39.801Z,2.70
2023-08-09T11:56:09.414Z,2.78
2023-08-09T11:58:38.255Z,2.67
2023-08-09T12:01:22.108Z,2.65
2023-08-09T12:03:53.340Z,2.40
2023-08-09T12:06:36.279Z,2.70
2023-08-09T12:09:32.536Z,2.60
2023-08-09T12:12:09.540Z,2.38
2023-08-09T12:14:39.253Z,2.60
2023-08-09T12:17:08.828Z,2.65
2023-08-09T12:19:37.696Z,2.45
2023-08-09T12:22:06.769Z,2.58
2023-08-09T12:24:36.342Z,2.60
2023-08-09T12:27:05.230Z,2.70
2023-08-09T12:29:33.389Z,2.40
2023-08-09T12:32:01.847Z,3.55
2023-08-09T12:34:30.544Z,2.50
2023-08-09T12:36:58.957Z,2.47
2023-08-09T12:39:27.504Z,2.70
2023-08-09T12:41:57.450Z,2.53
2023-08-09T12:44:26.089Z,2.55
2023-08-09T12:46:55.028Z,2.40
2023-08-09T12:49:23.235Z,2.42
2023-08-09T12:51:51.296Z,2.22
2023-08-09T12:54:19.432Z,3.35
2023-08-09T12:56:47.488Z,2.25
2023-08-09T12:59:16.926Z,2.80
2023-08-09T13:01:45.067Z,3.03
2023-08-09T13:04:13.689Z,2.70
2023-08-09T13:06:41.786Z,3.05
2023-08-09T13:09:10.782Z,2.88
2023-08-09T13:11:38.889Z,2.40
2023-08-09T13:14:10.620Z,2.30
2023-08-09T13:16:40.234Z,2.38
2023-08-09T13:19:12.811Z,2.60
2023-08-09T13:21:42.031Z,2.40
2023-08-09T13:24:11.465Z,2.60
2023-08-09T13:26:39.504Z,2.40
2023-08-09T13:29:07.593Z,2.30
2023-08-09T13:31:35.604Z,2.53
2023-08-09T13:34:05.908Z,2.60
2023-08-09T13:36:33.998Z,2.67
2023-08-09T13:39:02.027Z,2.95
2023-08-09T13:41:30.127Z,3.35
2023-08-09T13:43:58.210Z,2.65
2023-08-09T13:46:26.254Z,2.22
2023-08-09T13:48:54.841Z,2.45
2023-08-09T13:51:24.329Z,2.33
2023-08-09T13:53:53.682Z,3.05
2023-08-09T13:56:21.777Z,2.63
2023-08-09T13:58:49.949Z,2.40
2023-08-09T14:01:18.033Z,2.85
2023-08-09T14:03:46.158Z,2.50
2023-08-09T14:06:14.180Z,2.70
2023-08-09T14:08:43.604Z,2.22
2023-08-09T14:11:11.655Z,2.50
2023-08-09T14:13:39.661Z,2.40
2023-08-09T14:16:07.823Z,2.20
2023-08-09T14:18:36.175Z,2.35
2023-08-09T14:21:04.333Z,2.85
2023-08-09T14:23:32.469Z,2.40
2023-08-09T14:26:03.155Z,2.17
2023-08-09T14:28:31.192Z,2.40
2023-08-09T14:30:59.451Z,3.00
2023-08-09T14:33:28.514Z,2.90
2023-08-09T14:35:57.772Z,3.05
2023-08-09T14:38:25.865Z,2.75
2023-08-09T14:40:55.468Z,3.00
2023-08-09T14:43:24.846Z,2.40
2023-08-09T14:45:53.407Z,2.60
2023-08-09T14:48:21.583Z,2.10
2023-08-09T14:50:49.735Z,2.67
2023-08-09T14:53:17.717Z,2.20
2023-08-09T14:55:46.477Z,2.20
2023-08-09T14:58:14.558Z,2.22
2023-08-09T15:00:44.137Z,2.40
2023-08-09T15:03:13.819Z,2.67
2023-08-09T15:05:42.004Z,2.40
2023-08-09T15:08:10.118Z,2.17
2023-08-09T15:10:38.778Z,2.85
2023-08-09T15:13:10.326Z,2.85
2023-08-09T15:15:38.387Z,2.30
2023-08-09T15:18:08.276Z,2.25
2023-08-09T15:20:36.312Z,2.30
2023-08-09T15:23:04.433Z,2.42
2023-08-09T15:25:32.420Z,2.25
2023-08-09T15:28:01.472Z,2.15
2023-08-09T15:30:30.234Z,2.40
2023-08-09T15:32:58.999Z,2.50
2023-08-09T15:35:28.521Z,2.53
2023-08-09T15:37:56.586Z,2.53
2023-08-09T15:40:24.913Z,2.80
2023-08-09T15:42:53.038Z,2.53
2023-08-09T15:45:21.016Z,2.55
2023-08-09T15:47:49.061Z,2.47
2023-08-09T15:50:17.089Z,2.50
2023-08-09T15:52:46.817Z,2.30
2023-08-09T15:55:14.930Z,2.80
2023-08-09T15:57:47.350Z,3.10
2023-08-09T16:00:18.237Z,2.78
2023-08-09T16:02:53.472Z,3.05
2023-08-09T16:05:24.358Z,2.75
2023-08-09T16:07:56.826Z,3.22
2023-08-09T16:10:25.456Z,3.60
2023-08-09T16:12:55.974Z,3.90
2023-08-09T16:15:26.365Z,2.83
2023-08-09T16:17:54.669Z,3.75
2023-08-09T16:20:25.645Z,4.45
2023-08-09T16:22:58.614Z,4.22
2023-08-09T16:25:31.490Z,4.90
2023-08-09T16:28:10.065Z,6.13
2023-08-09T16:30:41.715Z,4.22
2023-08-09T16:33:20.630Z,3.03
2023-08-09T16:35:50.213Z,3.45
2023-08-09T16:38:20.423Z,3.35
2023-08-09T16:40:52.444Z,4.07
2023-08-09T16:43:22.447Z,3.35
2023-08-09T16:45:50.576Z,2.97
2023-08-09T16:48:18.959Z,3.30
2023-08-09T16:50:47.529Z,2.60
2023-08-09T16:53:15.594Z,3.50
2023-08-09T16:55:44.932Z,3.38
2023-08-09T16:58:13.551Z,3.10
2023-08-09T17:00:41.721Z,4.10
2023-08-09T17:03:09.882Z,3.13
2023-08-09T17:05:40.579Z,3.60
2023-08-09T17:08:08.892Z,13.43
2023-08-09T17:10:37.021Z,3.65
2023-08-09T17:13:06.880Z,3.47
2023-08-09T17:15:35.071Z,3.28
2023-08-09T17:18:03.131Z,2.97
2023-08-09T17:20:36.179Z,3.40
2023-08-09T17:23:04.705Z,3.13
2023-08-09T17:25:32.923Z,3.42
2023-08-09T17:28:01.132Z,4.50
2023-08-09T17:30:30.511Z,3.88
2023-08-09T17:32:59.046Z,2.67
2023-08-09T17:35:28.023Z,2.58
2023-08-09T17:37:56.703Z,2.63
2023-08-09T17:40:25.214Z,2.60
2023-08-09T17:42:53.341Z,2.60
2023-08-09T17:45:21.797Z,2.58
2023-08-09T17:47:51.428Z,2.80
2023-08-09T17:50:19.737Z,3.17
2023-08-09T17:52:47.805Z,2.92
2023-08-09T17:55:16.011Z,2.60
2023-08-09T17:57:45.498Z,2.60
2023-08-09T18:00:17.423Z,2.50
2023-08-09T18:02:45.754Z,2.90
2023-08-09T18:05:15.514Z,2.90
2023-08-09T18:07:45.985Z,2.85
2023-08-09T18:10:16.103Z,3.00
2023-08-09T18:12:44.866Z,3.00
2023-08-09T18:15:12.908Z,3.00
2023-08-09T18:17:41.015Z,3.15
2023-08-09T18:20:13.228Z,3.45
2023-08-09T18:22:45.750Z,3.40
2023-08-09T18:25:13.788Z,2.88
2023-08-09T18:27:42.444Z,3.10
2023-08-09T18:30:11.856Z,3.10
2023-08-09T18:32:40.747Z,2.53
2023-08-09T18:35:18.114Z,3.20
2023-08-09T18:37:48.755Z,3.58
2023-08-09T18:40:17.799Z,2.83
2023-08-09T18:42:47.116Z,3.25
2023-08-09T18:45:16.364Z,3.22
2023-08-09T18:47:44.591Z,3.40
2023-08-09T18:50:13.000Z,3.38
2023-08-09T18:52:41.707Z,3.50
2023-08-09T18:55:12.410Z,4.65
2023-08-09T18:57:40.799Z,3.80
2023-08-09T19:00:13.572Z,3.88
2023-08-09T19:02:45.463Z,3.50
2023-08-09T19:08:00.101Z,3.60
2023-08-09T19:10:29.525Z,3.25
2023-08-09T19:12:57.532Z,3.80
2023-08-09T19:15:27.650Z,3.42
2023-08-09T19:17:56.497Z,3.13
2023-08-09T19:20:26.220Z,3.28
2023-08-09T19:22:56.227Z,3.10
2023-08-09T19:25:24.708Z,3.30
2023-08-09T19:27:54.419Z,2.80
2023-08-09T19:30:22.919Z,2.90
2023-08-09T19:32:52.621Z,3.13
2023-08-09T19:35:20.718Z,3.40
2023-08-09T19:37:48.716Z,3.35
2023-08-09T19:40:16.871Z,3.40
2023-08-09T19:42:45.029Z,3.13
2023-08-09T19:45:15.454Z,3.00
2023-08-09T19:47:43.594Z,3.23
2023-08-09T19:50:11.898Z,3.10
2023-08-09T19:52:40.071Z,3.70
2023-08-09T19:55:09.222Z,3.30
2023-08-09T19:57:37.386Z,3.20
2023-08-09T20:00:13.014Z,3.53
2023-08-09T20:02:42.583Z,3.80
2023-08-09T20:05:12.381Z,3.30
2023-08-09T20:07:43.540Z,3.40
2023-08-09T20:10:12.349Z,2.80
2023-08-09T20:12:40.474Z,3.17
2023-08-09T20:15:09.460Z,3.20
2023-08-09T20:17:37.528Z,3.17
2023-08-09T20:20:08.956Z,3.50
2023-08-09T20:22:38.804Z,2.90
2023-08-09T20:25:07.132Z,3.20
2023-08-09T20:27:35.150Z,3.27
2023-08-09T20:30:03.345Z,3.30
2023-08-09T20:32:31.827Z,3.20
2023-08-09T20:34:59.847Z,3.63
2023-08-09T20:37:29.409Z,3.30
2023-08-09T20:39:58.290Z,3.20
2023-08-09T20:42:27.663Z,3.27
2023-08-09T20:44:55.707Z,3.20
2023-08-09T20:47:23.793Z,2.60
2023-08-09T20:49:52.038Z,3.43
2023-08-09T20:52:20.111Z,2.73
2023-08-09T20:54:49.705Z,3.07
2023-08-09T20:57:18.151Z,3.13
2023-08-09T20:59:46.148Z,3.30
2023-08-09T21:02:14.201Z,3.17
2023-08-09T21:04:42.852Z,3.40
2023-08-09T21:07:11.315Z,3.40
2023-08-09T21:09:39.330Z,3.30
2023-08-09T21:12:09.272Z,3.40
2023-08-09T21:14:39.910Z,3.70
2023-08-09T21:17:08.617Z,3.57
2023-08-09T21:19:36.684Z,3.40
2023-08-09T21:22:05.175Z,3.10
2023-08-09T21:24:33.683Z,2.70
2023-08-09T21:27:01.732Z,3.40
2023-08-09T21:29:32.375Z,3.00
2023-08-09T21:32:01.803Z,2.37
2023-08-09T21:34:29.840Z,2.40
2023-08-09T21:36:57.858Z,2.70
2023-08-09T21:39:25.970Z,2.43
2023-08-09T21:41:54.060Z,2.40
2023-08-09T21:44:22.229Z,2.50
2023-08-09T21:46:51.829Z,2.50
2023-08-09T21:49:19.894Z,2.63
2023-08-09T21:51:47.948Z,2.93
2023-08-09T21:54:16.084Z,2.20
2023-08-09T21:56:44.156Z,2.73
2023-08-09T21:59:12.251Z,2.80
2023-08-09T22:01:41.082Z,2.50
2023-08-09T22:04:10.894Z,2.50
2023-08-09T22:06:38.912Z,3.00
2023-08-09T22:09:07.524Z,2.90
2023-08-09T22:11:35.660Z,2.67
2023-08-09T22:14:03.720Z,3.00
2023-08-09T22:16:32.222Z,2.70
2023-08-09T22:19:00.327Z,2.83
2023-08-09T22:23:57.991Z,2.53
2023-08-09T22:26:26.185Z,2.60
2023-08-09T22:28:54.313Z,2.70
2023-08-09T22:31:22.388Z,2.50
2023-08-09T22:33:51.283Z,2.60
2023-08-09T22:36:19.301Z,2.50
2023-08-09T22:38:48.713Z,2.47
2023-08-09T22:41:16.755Z,2.50
2023-08-09T22:43:44.795Z,2.43
2023-08-09T22:46:12.886Z,2.10
2023-08-09T22:48:40.964Z,2.10
2023-08-09T22:51:09.947Z,2.23
2023-08-09T22:53:38.061Z,2.23
2023-08-09T22:56:09.950Z,1.83
2023-08-09T22:58:37.974Z,1.80
2023-08-09T23:01:06.145Z,2.00
2023-08-09T23:03:34.337Z,1.93
2023-08-09T23:06:02.667Z,1.90
2023-08-09T23:08:30.733Z,2.00
2023-08-09T23:10:58.715Z,1.83
2023-08-09T23:13:28.126Z,2.17
2023-08-09T23:15:56.855Z,2.20
2023-08-09T23:18:25.098Z,2.00
2023-08-09T23:20:53.378Z,2.10
2023-08-09T23:23:21.488Z,1.83
2023-08-09T23:25:49.464Z,1.93
2023-08-09T23:28:17.424Z,2.00
2023-08-09T23:30:47.549Z,1.87
2023-08-09T23:33:17.244Z,1.83
2023-08-09T23:35:45.338Z,1.80
2023-08-09T23:38:13.380Z,1.80
2023-08-09T23:40:42.284Z,2.00
2023-08-09T23:43:10.325Z,1.90
2023-08-09T23:45:38.369Z,2.00
2023-08-09T23:48:09.020Z,1.90
2023-08-09T23:50:37.092Z,1.80
2023-08-09T23:53:06.065Z,1.90
2023-08-09T23:55:34.246Z,2.00
2023-08-09T23:58:02.361Z,1.87
